createdAt,value
2019-06-07T00:00:29.679Z,9.60
2019-06-07T00:03:00.297Z,9.60
2019-06-07T00:05:29.000Z,9.60
2019-06-07T00:08:07.749Z,9.80
2019-06-07T00:10:36.490Z,9.80
2019-06-07T00:12:58.174Z,9.80
2019-06-07T00:15:28.923Z,9.80
2019-06-07T00:17:57.112Z,9.70
2019-06-07T00:20:25.912Z,9.80
2019-06-07T00:22:54.703Z,9.90
2019-06-07T00:25:24.548Z,9.90
2019-06-07T00:27:53.535Z,9.90
2019-06-07T00:30:44.623Z,9.90
2019-06-07T00:32:53.114Z,9.90
2019-06-07T00:35:22.504Z,9.90
2019-06-07T00:37:51.186Z,9.90
2019-06-07T00:40:30.001Z,10.00
2019-06-07T00:42:50.008Z,10.10
2019-06-07T00:45:21.865Z,10.20
2019-06-07T00:47:49.080Z,10.20
2019-06-07T00:50:21.043Z,10.20
2019-06-07T00:55:20.637Z,10.30
2019-06-07T00:57:49.195Z,10.30
2019-06-07T01:00:23.261Z,10.30
2019-06-07T01:02:48.579Z,10.20
2019-06-07T01:05:20.327Z,10.30
2019-06-07T01:07:47.357Z,10.30
2019-06-07T01:10:22.887Z,10.40
2019-06-07T01:12:47.080Z,10.30
2019-06-07T01:15:18.187Z,10.30
2019-06-07T01:18:25.959Z,10.30
2019-06-07T01:20:21.221Z,10.40
2019-06-07T01:22:48.072Z,10.40
2019-06-07T01:25:18.320Z,10.40
2019-06-07T01:27:47.520Z,10.40
2019-06-07T01:30:18.615Z,10.40
2019-06-07T01:32:47.099Z,10.40
2019-06-07T01:35:16.582Z,10.30
2019-06-07T01:37:45.590Z,10.30
2019-06-07T01:40:16.978Z,10.30
2019-06-07T01:42:45.654Z,10.30
2019-06-07T01:45:14.607Z,10.30
2019-06-07T01:47:43.085Z,10.30
2019-06-07T01:50:12.240Z,10.30
2019-06-07T01:52:40.958Z,10.30
2019-06-07T01:55:11.096Z,10.30
2019-06-07T01:57:47.953Z,10.30
2019-06-07T02:00:10.895Z,10.20
2019-06-07T02:02:39.747Z,10.20
2019-06-07T02:05:08.756Z,10.30
2019-06-07T02:07:37.322Z,10.40
2019-06-07T02:10:06.775Z,10.40
2019-06-07T02:12:42.865Z,10.40
2019-06-07T02:15:09.848Z,10.40
2019-06-07T02:17:39.217Z,10.40
2019-06-07T02:20:08.435Z,10.30
2019-06-07T02:22:36.896Z,10.30
2019-06-07T02:25:37.224Z,10.30
2019-06-07T02:27:40.568Z,10.30
2019-06-07T02:30:36.674Z,10.30
2019-06-07T02:32:41.347Z,10.30
2019-06-07T02:35:10.463Z,10.30
2019-06-07T02:37:38.899Z,10.30
2019-06-07T02:40:08.598Z,10.30
2019-06-07T02:42:42.225Z,10.30
2019-06-07T02:45:10.845Z,10.20
2019-06-07T02:47:39.131Z,10.30
2019-06-07T02:50:11.266Z,10.20
2019-06-07T02:52:41.472Z,10.20
2019-06-07T02:55:11.350Z,10.20
2019-06-07T02:57:41.584Z,10.10
2019-06-07T03:00:41.867Z,10.10
2019-06-07T03:02:46.739Z,10.20
2019-06-07T03:05:15.203Z,10.20
2019-06-07T03:07:47.232Z,10.10
2019-06-07T03:10:16.427Z,10.20
2019-06-07T03:12:47.684Z,10.20
2019-06-07T03:15:32.841Z,10.20
2019-06-07T03:17:50.818Z,10.10
2019-06-07T03:20:24.230Z,10.10
2019-06-07T03:22:52.882Z,10.10
2019-06-07T03:25:21.314Z,10.10
2019-06-07T03:27:50.778Z,10.10
2019-06-07T03:30:41.640Z,10.10
2019-06-07T03:32:50.090Z,10.10
2019-06-07T03:35:18.987Z,10.10
2019-06-07T03:37:47.454Z,10.10
2019-06-07T03:40:16.049Z,10.10
2019-06-07T03:42:44.499Z,10.10
2019-06-07T03:45:13.202Z,10.00
2019-06-07T03:47:43.029Z,10.10
2019-06-07T03:50:12.294Z,10.00
2019-06-07T03:52:41.803Z,9.90
2019-06-07T03:55:10.617Z,9.90
2019-06-07T03:58:29.211Z,9.80
2019-06-07T04:00:10.482Z,9.80
2019-06-07T04:02:41.995Z,9.80
2019-06-07T04:05:09.519Z,9.90
2019-06-07T04:07:43.752Z,10.00
2019-06-07T04:10:08.859Z,10.00
2019-06-07T04:12:41.169Z,10.00
2019-06-07T04:15:08.123Z,10.20
2019-06-07T04:17:41.131Z,10.20
2019-06-07T04:20:07.515Z,10.20
2019-06-07T04:22:39.841Z,10.20
2019-06-07T04:25:11.499Z,10.30
2019-06-07T04:27:41.328Z,10.30
2019-06-07T04:30:10.770Z,10.30
2019-06-07T04:32:44.189Z,10.40
2019-06-07T04:35:10.495Z,10.50
2019-06-07T04:37:41.479Z,10.50
2019-06-07T04:40:10.224Z,10.60
2019-06-07T04:42:44.792Z,10.60
2019-06-07T04:45:32.445Z,10.60
2019-06-07T04:47:44.646Z,10.60
2019-06-07T04:50:14.580Z,10.70
2019-06-07T04:52:45.333Z,10.80
2019-06-07T04:55:13.921Z,10.80
2019-06-07T04:57:43.200Z,10.90
2019-06-07T05:00:46.145Z,11.00
2019-06-07T05:02:43.434Z,11.00
2019-06-07T05:05:12.587Z,11.00
2019-06-07T05:07:46.085Z,11.10
2019-06-07T05:10:11.946Z,11.20
2019-06-07T05:12:44.170Z,11.20
2019-06-07T05:15:11.187Z,11.40
2019-06-07T05:17:43.284Z,11.40
2019-06-07T05:20:10.417Z,11.50
2019-06-07T05:22:42.526Z,11.60
2019-06-07T05:25:09.615Z,11.80
2019-06-07T05:27:41.192Z,11.90
2019-06-07T05:30:36.639Z,12.00
2019-06-07T05:32:43.661Z,12.10
2019-06-07T05:35:12.752Z,12.20
2019-06-07T05:37:45.605Z,12.30
2019-06-07T05:40:14.345Z,12.40
2019-06-07T05:42:46.455Z,12.50
2019-06-07T05:45:16.315Z,12.60
2019-06-07T05:47:50.875Z,12.70
2019-06-07T05:50:38.495Z,12.80
2019-06-07T05:52:47.561Z,12.90
2019-06-07T05:55:16.304Z,13.10
2019-06-07T05:57:49.146Z,13.20
2019-06-07T06:00:15.440Z,13.50
2019-06-07T06:03:00.261Z,13.70
2019-06-07T06:05:32.568Z,13.70
2019-06-07T06:07:50.225Z,13.50
2019-06-07T06:10:14.942Z,13.30
2019-06-07T06:12:51.093Z,13.30
2019-06-07T06:15:13.759Z,13.40
2019-06-07T06:17:46.051Z,13.60
2019-06-07T06:20:13.010Z,13.80
2019-06-07T06:22:44.837Z,13.90
2019-06-07T06:28:05.966Z,14.30
2019-06-07T06:30:14.116Z,14.40
2019-06-07T06:32:50.972Z,14.70
2019-06-07T06:35:13.420Z,14.70
2019-06-07T06:37:46.399Z,14.80
2019-06-07T06:40:14.309Z,14.90
2019-06-07T06:42:44.686Z,15.20
2019-06-07T06:45:13.829Z,15.10
2019-06-07T06:47:43.328Z,15.10
2019-06-07T06:50:13.447Z,15.30
2019-06-07T06:52:44.049Z,15.50
2019-06-07T06:55:13.156Z,15.60
2019-06-07T06:57:41.866Z,15.70
2019-06-07T07:00:13.131Z,15.60
2019-06-07T07:03:33.054Z,15.60
2019-06-07T07:05:13.270Z,15.90
2019-06-07T07:07:42.743Z,16.10
2019-06-07T07:10:12.391Z,16.20
2019-06-07T07:12:40.822Z,16.10
2019-06-07T07:15:17.126Z,16.30
2019-06-07T07:17:54.001Z,16.50
2019-06-07T07:20:16.133Z,16.60
2019-06-07T07:22:47.886Z,16.70
2019-06-07T07:25:15.855Z,16.90
2019-06-07T07:27:44.654Z,17.00
2019-06-07T07:30:36.032Z,16.90
2019-06-07T07:32:45.585Z,17.10
2019-06-07T07:35:14.454Z,17.10
2019-06-07T07:37:45.415Z,17.10
2019-06-07T07:40:55.409Z,17.10
2019-06-07T07:42:45.217Z,17.20
2019-06-07T07:45:14.249Z,17.30
2019-06-07T07:48:01.821Z,17.60
2019-06-07T07:50:13.706Z,17.80
2019-06-07T07:52:42.166Z,18.00
2019-06-07T07:55:10.885Z,17.90
2019-06-07T07:57:39.458Z,18.10
2019-06-07T08:00:48.591Z,18.40
2019-06-07T08:02:39.148Z,18.40
2019-06-07T08:05:23.480Z,18.50
2019-06-07T08:07:38.996Z,18.60
2019-06-07T08:10:08.219Z,18.50
2019-06-07T08:12:55.513Z,18.60
2019-06-07T08:15:07.983Z,18.70
2019-06-07T08:17:36.742Z,18.80
2019-06-07T08:20:07.700Z,19.00
2019-06-07T08:22:36.163Z,19.10
2019-06-07T08:25:06.862Z,19.00
2019-06-07T08:27:35.690Z,18.90
2019-06-07T08:30:35.105Z,19.10
2019-06-07T08:32:38.191Z,19.30
2019-06-07T08:35:08.015Z,19.30
2019-06-07T08:40:08.686Z,19.60
2019-06-07T08:42:58.174Z,19.90
2019-06-07T08:45:08.899Z,20.10
2019-06-07T08:47:37.411Z,19.90
2019-06-07T08:50:11.356Z,20.10
2019-06-07T08:52:40.173Z,20.20
2019-06-07T08:55:09.056Z,20.30
2019-06-07T08:57:37.811Z,20.50
2019-06-07T09:00:42.297Z,20.80
2019-06-07T09:02:40.827Z,20.70
2019-06-07T09:05:12.339Z,21.00
2019-06-07T09:07:40.098Z,21.00
2019-06-07T09:10:14.466Z,21.20
2019-06-07T09:12:39.839Z,21.30
2019-06-07T09:15:20.467Z,21.80
2019-06-07T09:18:29.558Z,21.90
2019-06-07T09:20:35.225Z,22.40
2019-06-07T09:22:44.535Z,23.10
2019-06-07T09:25:21.141Z,23.90
2019-06-07T09:27:44.324Z,23.90
2019-06-07T09:30:18.531Z,24.70
2019-06-07T09:32:43.559Z,25.40
2019-06-07T09:35:17.594Z,25.30
2019-06-07T09:40:24.853Z,26.20
2019-06-07T09:42:43.709Z,26.10
2019-06-07T09:45:14.183Z,25.90
2019-06-07T09:47:43.095Z,26.40
2019-06-07T09:50:12.614Z,26.80
2019-06-07T09:52:58.112Z,27.00
2019-06-07T09:55:22.990Z,27.30
2019-06-07T09:57:41.999Z,28.20
2019-06-07T10:00:39.766Z,28.30
2019-06-07T10:02:47.504Z,28.40
2019-06-07T10:05:16.614Z,28.90
2019-06-07T10:08:00.003Z,29.10
2019-06-07T10:12:46.585Z,28.90
2019-06-07T10:15:15.261Z,29.00
2019-06-07T10:17:44.186Z,28.20
2019-06-07T10:20:13.142Z,28.30
2019-06-07T10:22:41.952Z,28.50
2019-06-07T10:25:10.769Z,28.30
2019-06-07T10:27:39.313Z,28.40
2019-06-07T10:30:10.258Z,28.60
2019-06-07T10:32:39.004Z,29.50
2019-06-07T10:35:11.329Z,29.80
2019-06-07T10:37:39.005Z,29.30
2019-06-07T10:40:09.266Z,29.40
2019-06-07T10:42:38.351Z,29.60
2019-06-07T10:45:08.226Z,30.20
2019-06-07T10:47:37.937Z,30.50
2019-06-07T10:50:08.116Z,31.20
2019-06-07T10:52:37.143Z,31.20
2019-06-07T10:55:06.822Z,32.00
2019-06-07T10:57:35.338Z,31.60
2019-06-07T11:00:07.441Z,31.50
2019-06-07T11:02:36.241Z,32.10
2019-06-07T11:05:08.117Z,31.40
2019-06-07T11:07:36.777Z,31.40
2019-06-07T11:10:10.986Z,32.10
2019-06-07T11:12:36.771Z,32.00
2019-06-07T11:15:08.661Z,32.30
2019-06-07T11:17:37.759Z,32.00
2019-06-07T11:20:08.395Z,31.80
2019-06-07T11:22:37.211Z,32.00
2019-06-07T11:25:09.084Z,32.00
2019-06-07T11:27:37.291Z,31.70
2019-06-07T11:30:08.411Z,31.90
2019-06-07T11:32:37.076Z,32.00
2019-06-07T11:35:08.499Z,31.60
2019-06-07T11:37:37.494Z,32.00
2019-06-07T11:40:24.009Z,32.50
2019-06-07T11:42:38.483Z,32.00
2019-06-07T11:45:07.973Z,31.80
2019-06-07T11:47:37.683Z,32.00
2019-06-07T11:50:09.634Z,32.30
2019-06-07T11:52:39.214Z,32.10
2019-06-07T11:55:09.244Z,31.70
2019-06-07T11:57:38.399Z,32.50
2019-06-07T12:00:13.934Z,32.90
2019-06-07T12:02:42.859Z,33.80
2019-06-07T12:05:16.216Z,33.50
2019-06-07T12:07:43.305Z,33.60
2019-06-07T12:10:16.572Z,33.30
2019-06-07T12:12:44.136Z,33.10
2019-06-07T12:15:14.852Z,33.90
2019-06-07T12:17:43.426Z,33.70
2019-06-07T12:20:16.636Z,33.60
2019-06-07T12:22:45.214Z,33.70
2019-06-07T12:25:19.060Z,34.40
2019-06-07T12:27:44.287Z,35.10
2019-06-07T12:30:20.330Z,35.50
2019-06-07T12:32:43.715Z,35.20
2019-06-07T12:35:13.513Z,35.30
2019-06-07T12:37:44.877Z,35.70
2019-06-07T12:40:19.370Z,35.40
2019-06-07T12:42:44.427Z,35.90
2019-06-07T12:45:23.205Z,36.10
2019-06-07T12:47:43.864Z,37.00
2019-06-07T12:50:13.480Z,36.70
2019-06-07T12:52:42.524Z,36.30
2019-06-07T12:55:11.506Z,36.90
2019-06-07T12:57:39.948Z,37.10
2019-06-07T13:00:10.748Z,37.00
2019-06-07T13:02:39.271Z,36.60
2019-06-07T13:05:08.353Z,36.90
2019-06-07T13:07:37.168Z,37.00
2019-06-07T13:10:06.924Z,36.50
2019-06-07T13:12:35.601Z,37.10
2019-06-07T13:15:05.912Z,37.50
2019-06-07T13:17:34.632Z,38.30
2019-06-07T13:20:03.527Z,38.30
2019-06-07T13:22:32.318Z,37.20
2019-06-07T13:25:01.042Z,36.60
2019-06-07T13:27:33.318Z,35.50
2019-06-07T13:30:00.171Z,36.60
2019-06-07T13:32:28.631Z,37.30
2019-06-07T13:34:57.364Z,38.00
2019-06-07T13:37:25.823Z,38.30
2019-06-07T13:39:54.273Z,39.00
2019-06-07T13:42:23.055Z,39.00
2019-06-07T13:44:51.647Z,39.00
2019-06-07T13:47:21.055Z,38.60
2019-06-07T13:49:49.818Z,38.90
2019-06-07T13:52:18.320Z,39.00
2019-06-07T13:54:47.086Z,38.70
2019-06-07T13:57:15.525Z,39.10
2019-06-07T13:59:45.538Z,39.10
2019-06-07T14:02:13.983Z,39.20
2019-06-07T14:04:42.679Z,39.60
2019-06-07T14:07:11.297Z,39.10
2019-06-07T14:09:39.742Z,39.50
2019-06-07T14:12:08.255Z,39.40
2019-06-07T14:14:37.083Z,39.90
2019-06-07T14:17:05.976Z,40.10
2019-06-07T14:19:34.421Z,39.50
2019-06-07T14:22:03.002Z,39.70
2019-06-07T14:24:31.978Z,39.50
2019-06-07T14:27:06.169Z,39.80
2019-06-07T14:29:38.786Z,39.30
2019-06-07T14:32:08.157Z,38.50
2019-06-07T14:34:36.838Z,37.00
2019-06-07T14:37:06.692Z,35.70
2019-06-07T14:39:35.534Z,34.70
2019-06-07T14:42:10.034Z,33.90
2019-06-07T14:44:34.767Z,33.70
2019-06-07T14:47:03.292Z,33.70
2019-06-07T14:49:32.758Z,33.90
2019-06-07T14:52:01.541Z,33.40
2019-06-07T14:54:32.286Z,32.70
2019-06-07T14:57:03.074Z,32.00
2019-06-07T14:59:30.598Z,31.50
2019-06-07T15:01:59.598Z,31.30
2019-06-07T15:04:28.568Z,30.90
2019-06-07T15:06:57.183Z,31.00
2019-06-07T15:09:26.931Z,30.80
2019-06-07T15:11:56.177Z,30.80
2019-06-07T15:14:24.645Z,30.80
2019-06-07T15:16:53.146Z,30.70
2019-06-07T15:19:24.035Z,30.50
2019-06-07T15:21:51.759Z,30.10
2019-06-07T15:24:20.299Z,29.70
2019-06-07T15:26:49.122Z,29.60
2019-06-07T15:29:17.782Z,29.20
2019-06-07T15:31:46.296Z,29.10
2019-06-07T15:34:15.004Z,28.90
2019-06-07T15:36:43.480Z,28.70
2019-06-07T15:39:12.209Z,28.50
2019-06-07T15:41:40.712Z,28.40
2019-06-07T15:44:09.170Z,28.20
2019-06-07T15:46:37.979Z,28.00
2019-06-07T15:49:06.736Z,27.70
2019-06-07T15:51:36.540Z,27.50
2019-06-07T15:54:05.598Z,27.30
2019-06-07T15:56:34.629Z,27.00
2019-06-07T15:59:03.414Z,26.70
2019-06-07T16:01:33.510Z,26.50
2019-06-07T16:04:02.629Z,26.20
2019-06-07T16:06:34.071Z,26.00
2019-06-07T16:09:02.846Z,25.80
2019-06-07T16:11:32.709Z,25.70
2019-06-07T16:14:01.490Z,25.50
2019-06-07T16:16:30.267Z,25.50
2019-06-07T16:18:58.877Z,25.10
2019-06-07T16:21:27.769Z,24.40
2019-06-07T16:23:56.207Z,24.00
2019-06-07T16:26:24.962Z,23.80
2019-06-07T16:28:57.069Z,24.10
2019-06-07T16:31:23.918Z,24.30
2019-06-07T16:33:52.722Z,23.80
2019-06-07T16:36:21.504Z,23.60
2019-06-07T16:38:50.203Z,23.10
2019-06-07T16:41:19.003Z,23.10
2019-06-07T16:43:49.003Z,23.20
2019-06-07T16:46:17.531Z,23.90
2019-06-07T16:48:46.330Z,24.50
2019-06-07T16:51:14.786Z,24.40
2019-06-07T16:53:44.461Z,24.10
2019-06-07T16:56:13.163Z,23.60
2019-06-07T16:58:42.295Z,23.10
2019-06-07T17:01:11.239Z,22.60
2019-06-07T17:03:39.692Z,22.20
2019-06-07T17:06:08.455Z,21.80
2019-06-07T17:08:38.005Z,21.60
2019-06-07T17:11:06.871Z,21.60
2019-06-07T17:13:35.345Z,21.70
2019-06-07T17:16:04.270Z,22.40
2019-06-07T17:18:36.798Z,22.60
2019-06-07T17:21:03.265Z,22.30
2019-06-07T17:23:32.267Z,22.00
2019-06-07T17:26:00.716Z,21.60
2019-06-07T17:28:29.511Z,21.60
2019-06-07T17:30:57.959Z,21.40
2019-06-07T17:33:26.462Z,21.20
2019-06-07T17:35:54.942Z,21.20
2019-06-07T17:38:23.699Z,20.90
2019-06-07T17:40:52.498Z,20.70
2019-06-07T17:43:21.142Z,20.50
2019-06-07T17:45:49.894Z,20.50
2019-06-07T17:48:18.623Z,20.20
2019-06-07T17:50:49.890Z,19.90
2019-06-07T17:53:18.854Z,19.60
2019-06-07T17:55:48.186Z,19.30
2019-06-07T17:58:16.813Z,18.80
2019-06-07T18:00:48.832Z,18.50
2019-06-07T18:03:17.934Z,18.20
2019-06-07T18:05:49.301Z,18.00
2019-06-07T18:08:18.193Z,17.90
2019-06-07T18:10:47.839Z,17.90
2019-06-07T18:13:16.756Z,17.70
2019-06-07T18:15:51.718Z,17.70
2019-06-07T18:18:18.064Z,17.60
2019-06-07T18:20:47.301Z,17.50
2019-06-07T18:23:16.372Z,17.50
2019-06-07T18:25:46.309Z,17.30
2019-06-07T18:28:15.156Z,17.20
2019-06-07T18:30:43.765Z,17.20
2019-06-07T18:33:12.502Z,17.20
2019-06-07T18:35:40.967Z,17.20
2019-06-07T18:38:10.882Z,17.10
2019-06-07T18:40:40.641Z,17.00
2019-06-07T18:43:09.660Z,16.90
2019-06-07T18:45:39.638Z,16.90
2019-06-07T18:48:08.153Z,16.90
2019-06-07T18:50:36.820Z,16.80
2019-06-07T18:53:05.513Z,16.80
2019-06-07T18:55:34.017Z,16.70
2019-06-07T18:58:02.633Z,16.50
2019-06-07T19:00:31.973Z,16.10
2019-06-07T19:03:00.674Z,15.70
2019-06-07T19:05:29.571Z,15.10
2019-06-07T19:07:59.862Z,14.70
2019-06-07T19:10:28.480Z,14.40
2019-06-07T19:12:57.439Z,14.10
2019-06-07T19:15:26.871Z,13.90
2019-06-07T19:17:56.115Z,13.70
2019-06-07T19:20:25.230Z,13.70
2019-06-07T19:22:56.518Z,13.60
2019-06-07T19:25:25.523Z,13.50
2019-06-07T19:27:54.929Z,13.30
2019-06-07T19:30:24.376Z,13.20
2019-06-07T19:32:53.248Z,13.20
2019-06-07T19:35:22.357Z,13.10
2019-06-07T19:37:51.781Z,13.20
2019-06-07T19:40:20.520Z,13.30
2019-06-07T19:42:49.239Z,13.20
2019-06-07T19:45:30.138Z,13.20
2019-06-07T19:47:48.896Z,13.10
2019-06-07T19:50:18.599Z,13.20
2019-06-07T19:52:47.467Z,13.30
2019-06-07T19:55:17.016Z,13.20
2019-06-07T19:57:45.500Z,13.30
2019-06-07T20:00:14.937Z,13.40
2019-06-07T20:02:43.430Z,13.40
2019-06-07T20:05:15.514Z,13.30
2019-06-07T20:07:44.083Z,13.40
2019-06-07T20:10:14.117Z,13.40
2019-06-07T20:12:42.697Z,13.30
2019-06-07T20:15:27.851Z,13.30
2019-06-07T20:17:43.382Z,13.30
2019-06-07T20:20:12.674Z,13.30
2019-06-07T20:22:41.485Z,13.30
2019-06-07T20:25:11.819Z,13.30
2019-06-07T20:27:40.614Z,13.20
2019-06-07T20:30:10.563Z,13.20
2019-06-07T20:32:39.351Z,13.30
2019-06-07T20:35:08.520Z,13.40
2019-06-07T20:37:37.571Z,13.40
2019-06-07T20:40:23.446Z,13.50
2019-06-07T20:42:41.059Z,13.40
2019-06-07T20:45:09.826Z,13.40
2019-06-07T20:47:41.581Z,13.30
2019-06-07T20:50:11.621Z,13.20
2019-06-07T20:52:40.413Z,13.10
2019-06-07T20:55:09.801Z,13.10
2019-06-07T20:57:38.490Z,13.10
2019-06-07T21:00:14.262Z,13.10
2019-06-07T21:02:39.238Z,13.10
2019-06-07T21:05:09.878Z,13.10
2019-06-07T21:07:39.068Z,13.10
2019-06-07T21:10:08.970Z,13.10
2019-06-07T21:12:38.676Z,13.00
2019-06-07T21:15:12.201Z,13.00
2019-06-07T21:17:37.944Z,12.90
2019-06-07T21:20:10.285Z,12.90
2019-06-07T21:22:37.986Z,13.10
2019-06-07T21:25:09.234Z,13.30
2019-06-07T21:27:37.916Z,13.30
2019-06-07T21:30:09.509Z,13.20
2019-06-07T21:32:38.264Z,13.40
2019-06-07T21:35:08.207Z,13.20
2019-06-07T21:37:36.982Z,13.20
2019-06-07T21:40:06.142Z,13.20
2019-06-07T21:42:34.837Z,13.20
2019-06-07T21:45:06.296Z,13.30
2019-06-07T21:47:35.040Z,13.50
2019-06-07T21:50:06.625Z,13.50
2019-06-07T21:52:35.255Z,13.40
2019-06-07T21:55:06.919Z,13.30
2019-06-07T21:57:36.294Z,13.30
2019-06-07T22:00:13.519Z,13.30
2019-06-07T22:02:42.602Z,13.40
2019-06-07T22:05:11.793Z,13.40
2019-06-07T22:07:40.707Z,13.40
2019-06-07T22:10:10.173Z,13.20
2019-06-07T22:12:38.703Z,13.20
2019-06-07T22:15:23.242Z,13.10
2019-06-07T22:17:38.583Z,13.00
2019-06-07T22:20:08.687Z,13.00
2019-06-07T22:22:37.519Z,12.90
2019-06-07T22:25:07.402Z,12.90
2019-06-07T22:27:36.250Z,12.90
2019-06-07T22:30:08.727Z,13.00
2019-06-07T22:32:37.489Z,13.10
2019-06-07T22:35:07.169Z,13.20
2019-06-07T22:37:35.964Z,13.30
2019-06-07T22:40:06.754Z,13.20
2019-06-07T22:42:35.615Z,13.10
2019-06-07T22:45:06.174Z,13.00
2019-06-07T22:47:34.959Z,12.90
2019-06-07T22:50:05.383Z,12.90
2019-06-07T22:52:33.819Z,12.80
2019-06-07T22:55:02.709Z,12.80
2019-06-07T22:57:48.895Z,12.80
2019-06-07T23:00:19.461Z,12.90
2019-06-07T23:02:48.067Z,12.90
2019-06-07T23:05:16.907Z,13.00
2019-06-07T23:07:45.650Z,13.00
2019-06-07T23:10:15.439Z,12.90
2019-06-07T23:12:44.279Z,12.90
2019-06-07T23:15:13.410Z,12.90
2019-06-07T23:17:42.191Z,12.80
2019-06-07T23:20:11.857Z,12.90
2019-06-07T23:22:40.422Z,12.90
2019-06-07T23:25:10.002Z,12.90
2019-06-07T23:27:38.535Z,12.90
2019-06-07T23:30:10.633Z,12.90
2019-06-07T23:32:39.135Z,12.90
2019-06-07T23:35:08.000Z,12.80
2019-06-07T23:37:36.902Z,12.80
2019-06-07T23:40:06.379Z,13.00
2019-06-07T23:42:34.813Z,13.10
2019-06-07T23:45:03.470Z,13.30
2019-06-07T23:47:31.963Z,13.30
2019-06-07T23:50:00.717Z,13.20
2019-06-07T23:52:29.178Z,13.20
2019-06-07T23:54:57.904Z,13.10
2019-06-07T23:57:26.338Z,12.90
2019-06-07T23:59:54.794Z,12.80
